createdAt,value
2019-02-15T00:00:49.825Z,1.45
2019-02-15T00:03:16.378Z,1.37
2019-02-15T00:05:45.774Z,1.33
2019-02-15T00:08:12.317Z,1.31
2019-02-15T00:10:38.889Z,1.37
2019-02-15T00:13:13.322Z,1.42
2019-02-15T00:15:33.937Z,1.29
2019-02-15T00:18:20.165Z,1.20
2019-02-15T00:21:09.281Z,1.22
2019-02-15T00:23:35.783Z,1.20
2019-02-15T00:26:02.678Z,1.05
2019-02-15T00:28:29.233Z,1.81
2019-02-15T00:30:55.786Z,1.89
2019-02-15T00:33:22.339Z,2.07
2019-02-15T00:35:48.930Z,2.03
2019-02-15T00:38:15.484Z,2.08
2019-02-15T00:40:42.059Z,2.23
2019-02-15T00:43:08.621Z,2.20
2019-02-15T00:45:48.150Z,2.12
2019-02-15T00:48:17.393Z,1.95
2019-02-15T00:50:57.760Z,1.71
2019-02-15T00:53:39.427Z,1.50
2019-02-15T00:56:24.010Z,1.41
2019-02-15T00:59:08.670Z,1.39
2019-02-15T01:01:49.162Z,1.70
2019-02-15T01:04:33.900Z,1.56
2019-02-15T01:07:11.663Z,1.47
2019-02-15T01:09:46.050Z,1.14
2019-02-15T01:12:27.952Z,0.89
2019-02-15T01:14:56.784Z,0.73
2019-02-15T01:17:23.346Z,0.76
2019-02-15T01:19:49.923Z,0.67
2019-02-15T01:22:16.459Z,0.55
2019-02-15T01:24:43.029Z,0.55
2019-02-15T01:27:17.892Z,0.56
2019-02-15T01:29:56.322Z,0.52
2019-02-15T01:32:32.288Z,0.44
2019-02-15T01:35:15.829Z,0.36
2019-02-15T01:38:07.722Z,0.34
2019-02-15T01:40:48.749Z,0.40
2019-02-15T01:43:40.793Z,0.45
2019-02-15T01:46:20.153Z,0.51
2019-02-15T01:48:46.698Z,0.33
2019-02-15T01:51:13.264Z,0.12
2019-02-15T01:53:39.827Z,0.06
2019-02-15T01:56:06.388Z,0.35
2019-02-15T01:58:32.947Z,0.22
2019-02-15T02:00:59.524Z,0.09
2019-02-15T02:03:26.408Z,0.00
2019-02-15T02:05:52.986Z,-0.06
2019-02-15T02:08:22.123Z,-0.06
2019-02-15T02:10:48.801Z,0.20
2019-02-15T02:13:15.363Z,0.47
2019-02-15T02:15:41.946Z,0.59
2019-02-15T02:18:08.485Z,0.78
2019-02-15T02:20:35.030Z,0.72
2019-02-15T02:23:01.929Z,0.64
2019-02-15T02:25:28.528Z,0.55
2019-02-15T02:27:55.096Z,0.51
2019-02-15T02:30:21.641Z,0.49
2019-02-15T02:32:48.209Z,0.40
2019-02-15T02:35:14.755Z,0.29
2019-02-15T02:37:41.345Z,0.15
2019-02-15T02:40:07.852Z,0.00
2019-02-15T02:42:34.452Z,-0.10
2019-02-15T02:45:00.997Z,-0.12
2019-02-15T02:47:27.561Z,-0.18
2019-02-15T02:49:54.133Z,-0.09
2019-02-15T02:52:20.658Z,0.00
2019-02-15T02:54:47.207Z,-0.03
2019-02-15T02:57:13.763Z,-0.10
2019-02-15T02:59:40.303Z,-0.18
2019-02-15T03:02:06.853Z,0.00
2019-02-15T03:04:33.399Z,-0.03
2019-02-15T03:06:59.959Z,-0.03
2019-02-15T03:09:26.519Z,0.03
2019-02-15T03:11:53.098Z,-0.06
2019-02-15T03:14:19.660Z,-0.06
2019-02-15T03:16:46.219Z,-0.07
2019-02-15T03:19:12.793Z,-0.02
2019-02-15T03:21:39.364Z,0.07
2019-02-15T03:24:05.903Z,0.10
2019-02-15T03:26:32.503Z,0.04
2019-02-15T03:28:59.076Z,0.02
2019-02-15T03:31:25.602Z,-0.09
2019-02-15T03:33:52.163Z,-0.12
2019-02-15T03:36:32.510Z,-0.04
2019-02-15T03:39:09.257Z,0.29
2019-02-15T03:41:35.903Z,0.51
2019-02-15T03:44:02.476Z,0.48
2019-02-15T03:46:29.005Z,0.26
2019-02-15T03:48:55.572Z,0.23
2019-02-15T03:51:22.115Z,0.04
2019-02-15T03:53:49.897Z,-0.11
2019-02-15T03:56:16.438Z,-0.31
2019-02-15T03:58:43.008Z,-0.46
2019-02-15T04:01:09.561Z,-0.51
2019-02-15T04:03:36.133Z,-0.28
2019-02-15T04:06:02.702Z,-0.11
2019-02-15T04:08:29.260Z,-0.14
2019-02-15T04:10:55.808Z,-0.23
2019-02-15T04:13:22.366Z,-0.24
2019-02-15T04:15:48.932Z,-0.01
2019-02-15T04:18:15.503Z,-0.16
2019-02-15T04:20:42.044Z,-0.44
2019-02-15T04:23:08.615Z,-0.47
2019-02-15T04:25:35.194Z,-0.68
2019-02-15T04:28:01.742Z,-0.81
2019-02-15T04:30:28.283Z,-0.33
2019-02-15T04:32:54.848Z,-0.51
2019-02-15T04:35:21.398Z,-0.67
2019-02-15T04:37:47.967Z,-0.78
2019-02-15T04:40:14.512Z,-0.76
2019-02-15T04:42:41.079Z,-0.84
2019-02-15T04:45:07.670Z,-0.85
2019-02-15T04:47:34.223Z,-0.85
2019-02-15T04:50:00.786Z,-0.89
2019-02-15T04:52:27.325Z,-0.85
2019-02-15T04:54:53.886Z,-0.59
2019-02-15T04:57:20.446Z,-0.72
2019-02-15T04:59:47.016Z,-0.89
2019-02-15T05:02:13.576Z,-1.03
2019-02-15T05:04:40.128Z,-1.01
2019-02-15T05:07:06.693Z,-1.14
2019-02-15T05:09:33.268Z,-1.18
2019-02-15T05:11:59.838Z,-1.19
2019-02-15T05:14:26.369Z,-1.02
2019-02-15T05:16:52.952Z,-1.05
2019-02-15T05:19:19.491Z,-1.07
2019-02-15T05:21:46.065Z,-0.96
2019-02-15T05:24:12.613Z,-0.50
2019-02-15T05:26:39.163Z,-0.39
2019-02-15T05:29:05.727Z,-0.36
2019-02-15T05:31:32.266Z,-0.43
2019-02-15T05:33:58.850Z,-0.51
2019-02-15T05:36:25.404Z,-0.53
2019-02-15T05:38:51.986Z,-0.50
2019-02-15T05:41:18.517Z,-0.53
2019-02-15T05:43:45.088Z,-0.62
2019-02-15T05:46:11.633Z,-0.53
2019-02-15T05:48:38.202Z,-0.60
2019-02-15T05:51:10.142Z,-0.57
2019-02-15T05:53:36.986Z,-0.64
2019-02-15T05:56:03.534Z,-0.66
2019-02-15T05:58:30.065Z,-0.73
2019-02-15T06:00:56.630Z,-0.77
2019-02-15T06:03:23.185Z,-0.84
2019-02-15T06:05:49.738Z,-0.83
2019-02-15T06:08:16.277Z,-0.69
2019-02-15T06:10:42.839Z,-0.64
2019-02-15T06:13:09.417Z,-0.55
2019-02-15T06:15:35.974Z,-0.67
2019-02-15T06:18:02.527Z,-0.81
2019-02-15T06:20:29.092Z,-0.94
2019-02-15T06:22:55.659Z,-1.03
2019-02-15T06:25:22.219Z,-0.76
2019-02-15T06:27:48.786Z,-0.90
2019-02-15T06:30:15.315Z,-1.05
2019-02-15T06:32:41.884Z,-1.09
2019-02-15T06:35:08.443Z,-1.02
2019-02-15T06:37:34.995Z,-0.91
2019-02-15T06:40:01.599Z,-0.95
2019-02-15T06:42:28.522Z,-0.99
2019-02-15T06:44:55.092Z,-1.00
2019-02-15T06:47:21.629Z,-0.99
2019-02-15T06:49:48.188Z,-0.97
2019-02-15T06:52:14.748Z,-0.92
2019-02-15T06:54:41.281Z,-0.94
2019-02-15T06:57:07.847Z,-0.98
2019-02-15T07:00:00.292Z,-0.96
2019-02-15T07:02:46.481Z,-0.82
2019-02-15T07:05:17.155Z,-0.90
2019-02-15T07:07:43.372Z,-0.89
2019-02-15T07:10:09.870Z,-0.90
2019-02-15T07:12:36.415Z,-0.88
2019-02-15T07:15:03.213Z,-0.85
2019-02-15T07:17:29.790Z,-0.82
2019-02-15T07:19:56.333Z,-0.82
2019-02-15T07:22:22.897Z,-0.72
2019-02-15T07:24:49.444Z,-0.46
2019-02-15T07:27:16.001Z,-0.43
2019-02-15T07:29:42.560Z,-0.37
2019-02-15T07:32:09.096Z,-0.24
2019-02-15T07:34:35.669Z,-0.21
2019-02-15T07:37:02.227Z,-0.11
2019-02-15T07:39:28.790Z,0.14
2019-02-15T07:41:55.352Z,0.15
2019-02-15T07:44:21.896Z,0.07
2019-02-15T07:46:48.463Z,0.06
2019-02-15T07:49:15.030Z,0.03
2019-02-15T07:51:41.575Z,0.17
2019-02-15T07:54:08.122Z,0.20
2019-02-15T07:56:34.679Z,0.14
2019-02-15T07:59:01.219Z,0.13
2019-02-15T08:01:27.792Z,0.14
2019-02-15T08:03:54.328Z,0.33
2019-02-15T08:06:20.897Z,0.37
2019-02-15T08:08:47.433Z,0.46
2019-02-15T08:11:14.002Z,0.58
2019-02-15T08:13:40.552Z,0.95
2019-02-15T08:16:07.117Z,1.38
2019-02-15T08:18:33.674Z,1.75
2019-02-15T08:21:00.230Z,2.41
2019-02-15T08:23:26.776Z,3.09
2019-02-15T08:25:53.367Z,3.52
2019-02-15T08:28:19.906Z,3.73
2019-02-15T08:30:46.447Z,3.94
2019-02-15T08:33:13.021Z,6.72
2019-02-15T08:35:39.551Z,6.72
2019-02-15T08:38:06.102Z,9.39
2019-02-15T08:40:32.637Z,11.41
2019-02-15T08:42:59.198Z,13.57
2019-02-15T08:45:25.757Z,14.12
2019-02-15T08:47:52.314Z,14.97
2019-02-15T08:50:18.861Z,15.98
2019-02-15T08:52:45.409Z,16.15
2019-02-15T08:55:11.937Z,17.47
2019-02-15T08:57:38.487Z,17.09
2019-02-15T09:00:06.056Z,17.53
2019-02-15T09:02:32.612Z,17.74
2019-02-15T09:04:59.142Z,18.33
2019-02-15T09:07:25.705Z,17.88
2019-02-15T09:09:52.244Z,18.70
2019-02-15T09:12:18.807Z,19.36
2019-02-15T09:14:45.349Z,19.66
2019-02-15T09:17:11.929Z,19.99
2019-02-15T09:19:38.468Z,20.40
2019-02-15T09:22:05.017Z,19.44
2019-02-15T09:24:31.555Z,20.60
2019-02-15T09:27:00.842Z,21.03
2019-02-15T09:29:27.384Z,21.29
2019-02-15T09:31:53.953Z,21.64
2019-02-15T09:34:20.512Z,21.59
2019-02-15T09:36:47.056Z,20.11
2019-02-15T09:39:13.620Z,21.67
2019-02-15T09:41:40.160Z,20.99
2019-02-15T09:44:06.785Z,21.18
2019-02-15T09:46:33.353Z,21.57
2019-02-15T09:48:59.913Z,20.21
2019-02-15T09:51:26.450Z,22.00
2019-02-15T09:53:53.021Z,21.05
2019-02-15T09:56:19.557Z,21.72
2019-02-15T09:58:46.122Z,21.05
2019-02-15T10:01:12.706Z,19.34
2019-02-15T10:03:39.266Z,20.68
2019-02-15T10:06:05.798Z,20.47
2019-02-15T10:08:32.353Z,20.88
2019-02-15T10:10:58.899Z,22.09
2019-02-15T10:13:25.464Z,22.93
2019-02-15T10:15:52.011Z,22.08
2019-02-15T10:18:18.581Z,21.53
2019-02-15T10:20:45.140Z,21.71
2019-02-15T10:23:11.704Z,23.68
2019-02-15T10:25:38.258Z,23.79
2019-02-15T10:28:04.825Z,21.70
2019-02-15T10:30:31.362Z,22.06
2019-02-15T10:32:57.906Z,21.01
2019-02-15T10:35:24.471Z,21.90
2019-02-15T10:37:51.001Z,20.54
2019-02-15T10:40:17.563Z,21.84
2019-02-15T10:42:44.104Z,19.87
2019-02-15T10:45:11.283Z,23.11
2019-02-15T10:47:37.816Z,22.80
2019-02-15T10:50:05.154Z,22.78
2019-02-15T10:52:31.898Z,23.11
2019-02-15T10:54:58.472Z,23.17
2019-02-15T10:57:25.002Z,22.00
2019-02-15T10:59:51.608Z,21.38
2019-02-15T11:02:18.148Z,23.30
2019-02-15T11:04:44.712Z,23.41
2019-02-15T11:07:11.256Z,22.24
2019-02-15T11:09:37.820Z,22.29
2019-02-15T11:12:04.350Z,22.98
2019-02-15T11:14:31.153Z,23.86
2019-02-15T11:16:57.709Z,23.20
2019-02-15T11:19:24.323Z,23.80
2019-02-15T11:21:50.822Z,22.36
2019-02-15T11:24:17.413Z,23.16
2019-02-15T11:26:43.914Z,22.90
2019-02-15T11:29:10.482Z,22.26
2019-02-15T11:31:37.033Z,22.82
2019-02-15T11:34:03.594Z,22.98
2019-02-15T11:36:30.147Z,22.39
2019-02-15T11:38:56.714Z,24.06
2019-02-15T11:41:23.264Z,24.94
2019-02-15T11:43:49.819Z,24.01
2019-02-15T11:46:16.387Z,25.07
2019-02-15T11:48:42.936Z,23.94
2019-02-15T11:51:09.499Z,23.64
2019-02-15T11:53:36.034Z,25.21
2019-02-15T11:56:02.608Z,25.95
2019-02-15T11:58:29.138Z,24.23
2019-02-15T12:00:55.710Z,21.92
2019-02-15T12:03:22.250Z,23.65
2019-02-15T12:05:48.819Z,24.21
2019-02-15T12:08:15.362Z,23.19
2019-02-15T12:10:41.933Z,22.43
2019-02-15T12:13:08.461Z,23.54
2019-02-15T12:15:35.005Z,21.76
2019-02-15T12:18:01.591Z,22.27
2019-02-15T12:20:28.184Z,21.65
2019-02-15T12:22:54.718Z,21.89
2019-02-15T12:25:21.281Z,22.85
2019-02-15T12:27:48.044Z,22.88
2019-02-15T12:30:14.681Z,23.08
2019-02-15T12:32:41.240Z,21.35
2019-02-15T12:35:07.818Z,22.56
2019-02-15T12:37:34.361Z,22.68
2019-02-15T12:40:00.920Z,22.90
2019-02-15T12:42:27.467Z,22.68
2019-02-15T12:44:54.034Z,21.38
2019-02-15T12:47:20.572Z,22.44
2019-02-15T12:49:47.136Z,23.73
2019-02-15T12:52:13.666Z,22.88
2019-02-15T12:54:40.248Z,24.42
2019-02-15T12:57:06.798Z,25.28
2019-02-15T12:59:33.362Z,21.62
2019-02-15T13:01:59.912Z,24.02
2019-02-15T13:04:26.456Z,22.00
2019-02-15T13:06:53.012Z,21.58
2019-02-15T13:09:19.566Z,21.79
2019-02-15T13:11:46.095Z,21.90
2019-02-15T13:14:12.647Z,22.16
2019-02-15T13:16:39.219Z,22.96
2019-02-15T13:19:05.788Z,22.64
2019-02-15T13:21:32.341Z,22.28
2019-02-15T13:23:58.880Z,21.51
2019-02-15T13:26:25.508Z,23.14
2019-02-15T13:28:52.190Z,22.22
2019-02-15T13:31:18.754Z,23.51
2019-02-15T13:33:45.325Z,22.71
2019-02-15T13:36:12.582Z,23.27
2019-02-15T13:38:39.130Z,21.39
2019-02-15T13:41:05.678Z,21.67
2019-02-15T13:43:32.238Z,22.56
2019-02-15T13:45:58.781Z,22.02
2019-02-15T13:48:25.342Z,21.65
2019-02-15T13:50:51.883Z,21.67
2019-02-15T13:53:18.430Z,21.94
2019-02-15T13:55:45.094Z,21.76
2019-02-15T13:58:11.646Z,22.75
2019-02-15T14:00:38.211Z,22.20
2019-02-15T14:03:04.751Z,21.30
2019-02-15T14:05:31.300Z,22.68
2019-02-15T14:07:57.849Z,22.91
2019-02-15T14:10:24.401Z,23.02
2019-02-15T14:12:50.964Z,23.14
2019-02-15T14:15:17.510Z,22.42
2019-02-15T14:17:46.487Z,21.98
2019-02-15T14:20:12.491Z,21.51
2019-02-15T14:22:39.039Z,21.51
2019-02-15T14:25:06.361Z,20.33
2019-02-15T14:27:32.923Z,20.92
2019-02-15T14:29:59.491Z,21.21
2019-02-15T14:32:26.050Z,21.09
2019-02-15T14:34:52.576Z,20.43
2019-02-15T14:37:19.143Z,20.28
2019-02-15T14:39:45.787Z,20.97
2019-02-15T14:42:12.332Z,21.56
2019-02-15T14:44:38.853Z,21.88
2019-02-15T14:47:05.405Z,21.04
2019-02-15T14:49:31.931Z,21.84
2019-02-15T14:51:58.474Z,21.62
2019-02-15T14:54:25.013Z,21.70
2019-02-15T14:56:51.566Z,21.02
2019-02-15T14:59:18.101Z,22.03
2019-02-15T15:01:44.680Z,21.86
2019-02-15T15:04:11.224Z,22.31
2019-02-15T15:06:37.767Z,22.51
2019-02-15T15:09:04.684Z,22.50
2019-02-15T15:11:31.236Z,22.74
2019-02-15T15:13:57.775Z,21.39
2019-02-15T15:16:24.327Z,21.22
2019-02-15T15:18:50.858Z,22.53
2019-02-15T15:21:17.410Z,23.66
2019-02-15T15:23:43.943Z,24.04
2019-02-15T15:26:12.029Z,23.55
2019-02-15T15:28:38.832Z,21.86
2019-02-15T15:31:06.022Z,20.86
2019-02-15T15:33:32.580Z,18.92
2019-02-15T15:35:59.141Z,18.19
2019-02-15T15:38:25.704Z,17.59
2019-02-15T15:40:52.238Z,16.90
2019-02-15T15:43:18.798Z,16.60
2019-02-15T15:45:45.325Z,16.37
2019-02-15T15:48:11.981Z,16.16
2019-02-15T15:50:40.574Z,16.10
2019-02-15T15:53:07.924Z,15.94
2019-02-15T15:55:34.551Z,15.67
2019-02-15T15:58:01.107Z,15.53
2019-02-15T16:00:27.643Z,15.48
2019-02-15T16:02:54.198Z,15.26
2019-02-15T16:05:20.744Z,15.24
2019-02-15T16:07:47.294Z,15.13
2019-02-15T16:10:13.838Z,14.89
2019-02-15T16:12:40.384Z,14.80
2019-02-15T16:15:07.831Z,14.69
2019-02-15T16:17:34.395Z,14.64
2019-02-15T16:20:00.937Z,14.54
2019-02-15T16:22:27.496Z,14.51
2019-02-15T16:24:54.023Z,14.32
2019-02-15T16:27:20.587Z,14.18
2019-02-15T16:29:47.135Z,13.96
2019-02-15T16:32:13.689Z,13.73
2019-02-15T16:34:40.236Z,13.65
2019-02-15T16:37:06.797Z,13.40
2019-02-15T16:39:33.471Z,13.18
2019-02-15T16:42:00.024Z,13.04
2019-02-15T16:44:26.568Z,12.94
2019-02-15T16:46:53.136Z,12.85
2019-02-15T16:49:19.817Z,12.66
2019-02-15T16:51:46.378Z,12.59
2019-02-15T16:54:12.944Z,12.70
2019-02-15T16:56:39.513Z,12.66
2019-02-15T16:59:06.086Z,12.49
2019-02-15T17:01:32.628Z,12.35
2019-02-15T17:03:59.199Z,12.56
2019-02-15T17:06:25.726Z,12.42
2019-02-15T17:08:52.285Z,12.37
2019-02-15T17:11:18.878Z,12.09
2019-02-15T17:13:45.386Z,11.88
2019-02-15T17:16:11.952Z,11.78
2019-02-15T17:18:38.625Z,11.59
2019-02-15T17:21:05.167Z,11.40
2019-02-15T17:23:31.731Z,11.23
2019-02-15T17:25:58.266Z,11.44
2019-02-15T17:28:24.825Z,11.39
2019-02-15T17:30:51.371Z,11.36
2019-02-15T17:33:17.940Z,11.67
2019-02-15T17:35:44.475Z,11.64
2019-02-15T17:38:11.430Z,11.67
2019-02-15T17:40:37.971Z,11.55
2019-02-15T17:43:04.576Z,11.58
2019-02-15T17:45:31.118Z,11.46
2019-02-15T17:47:57.665Z,11.33
2019-02-15T17:50:24.205Z,11.07
2019-02-15T17:52:50.760Z,10.94
2019-02-15T17:55:17.295Z,10.73
2019-02-15T17:57:43.867Z,10.93
2019-02-15T18:00:10.523Z,11.02
2019-02-15T18:02:37.078Z,10.99
2019-02-15T18:05:03.802Z,11.16
2019-02-15T18:07:30.359Z,10.97
2019-02-15T18:09:56.901Z,11.04
2019-02-15T18:12:23.440Z,11.16
2019-02-15T18:14:49.998Z,11.07
2019-02-15T18:17:16.558Z,10.86
2019-02-15T18:19:47.355Z,10.84
2019-02-15T18:22:11.540Z,10.66
2019-02-15T18:24:38.106Z,10.64
2019-02-15T18:27:04.827Z,10.57
2019-02-15T18:29:31.448Z,10.35
2019-02-15T18:31:57.978Z,10.36
2019-02-15T18:34:24.526Z,10.13
2019-02-15T18:36:51.060Z,9.89
2019-02-15T18:39:17.617Z,9.87
2019-02-15T18:41:44.301Z,9.75
2019-02-15T18:44:10.835Z,9.91
2019-02-15T18:46:37.382Z,9.91
2019-02-15T18:49:03.939Z,9.69
2019-02-15T18:51:30.474Z,9.56
2019-02-15T18:53:57.043Z,9.63
2019-02-15T18:56:23.553Z,9.66
2019-02-15T18:58:50.115Z,9.47
2019-02-15T19:01:16.656Z,9.41
2019-02-15T19:03:43.226Z,9.24
2019-02-15T19:06:09.764Z,9.14
2019-02-15T19:08:36.310Z,9.09
2019-02-15T19:11:03.254Z,9.21
2019-02-15T19:13:29.800Z,9.19
2019-02-15T19:15:56.345Z,9.02
2019-02-15T19:18:22.960Z,9.19
2019-02-15T19:20:49.546Z,9.07
2019-02-15T19:23:16.141Z,9.00
2019-02-15T19:25:42.693Z,9.00
2019-02-15T19:28:09.222Z,8.89
2019-02-15T19:30:35.834Z,8.95
2019-02-15T19:33:02.379Z,9.03
2019-02-15T19:35:28.921Z,9.07
2019-02-15T19:37:55.454Z,8.94
2019-02-15T19:40:22.001Z,8.14
2019-02-15T19:42:49.864Z,8.55
2019-02-15T19:45:16.416Z,8.67
2019-02-15T19:47:42.962Z,8.72
2019-02-15T19:50:11.211Z,8.62
2019-02-15T19:52:38.238Z,8.71
2019-02-15T19:55:05.205Z,8.74
2019-02-15T19:57:31.756Z,8.56
2019-02-15T19:59:58.322Z,8.41
2019-02-15T20:02:24.913Z,8.46
2019-02-15T20:04:51.472Z,8.43
2019-02-15T20:07:18.002Z,8.34
2019-02-15T20:09:44.568Z,8.34
2019-02-15T20:12:11.141Z,8.27
2019-02-15T20:14:37.664Z,8.18
2019-02-15T20:17:04.255Z,8.07
2019-02-15T20:19:30.817Z,8.38
2019-02-15T20:21:57.352Z,8.56
2019-02-15T20:24:23.888Z,8.66
2019-02-15T20:26:50.446Z,8.86
2019-02-15T20:29:16.991Z,8.79
2019-02-15T20:31:43.554Z,8.76
2019-02-15T20:34:10.121Z,8.70
2019-02-15T20:36:36.680Z,8.64
2019-02-15T20:39:03.859Z,8.67
2019-02-15T20:41:30.421Z,8.65
2019-02-15T20:43:56.965Z,8.58
2019-02-15T20:46:23.522Z,8.79
2019-02-15T20:49:03.832Z,8.59
2019-02-15T20:51:18.510Z,8.59
2019-02-15T20:53:45.066Z,8.83
2019-02-15T20:56:11.619Z,8.66
2019-02-15T20:58:38.164Z,8.57
2019-02-15T21:01:04.726Z,8.46
2019-02-15T21:03:31.273Z,8.56
2019-02-15T21:05:57.816Z,8.40
2019-02-15T21:08:26.469Z,8.32
2019-02-15T21:10:55.340Z,8.44
2019-02-15T21:13:21.288Z,8.37
2019-02-15T21:15:48.122Z,8.65
2019-02-15T21:18:14.731Z,8.38
2019-02-15T21:20:41.281Z,8.20
2019-02-15T21:23:07.813Z,8.25
2019-02-15T21:25:34.374Z,8.22
2019-02-15T21:28:00.902Z,8.36
2019-02-15T21:30:27.460Z,8.19
2019-02-15T21:32:53.999Z,8.14
2019-02-15T21:35:20.540Z,7.97
2019-02-15T21:37:47.096Z,7.79
2019-02-15T21:40:14.073Z,7.87
2019-02-15T21:42:40.630Z,7.91
2019-02-15T21:45:07.853Z,7.76
2019-02-15T21:47:34.416Z,7.66
2019-02-15T21:50:00.944Z,7.77
2019-02-15T21:52:27.497Z,7.85
2019-02-15T21:54:54.042Z,7.94
2019-02-15T21:57:20.591Z,7.65
2019-02-15T21:59:47.119Z,7.61
2019-02-15T22:02:13.681Z,7.45
2019-02-15T22:04:40.206Z,7.26
2019-02-15T22:07:06.759Z,7.42
2019-02-15T22:09:33.298Z,7.46
2019-02-15T22:11:59.850Z,7.43
2019-02-15T22:14:26.386Z,7.19
2019-02-15T22:16:52.959Z,7.11
2019-02-15T22:19:19.489Z,7.43
2019-02-15T22:21:46.040Z,7.48
2019-02-15T22:24:12.597Z,8.68
2019-02-15T22:26:39.131Z,8.33
2019-02-15T22:29:05.668Z,8.08
2019-02-15T22:31:32.240Z,7.85
2019-02-15T22:33:58.777Z,8.40
2019-02-15T22:36:25.545Z,8.82
2019-02-15T22:38:52.078Z,9.10
2019-02-15T22:41:18.605Z,9.05
2019-02-15T22:43:45.280Z,9.01
2019-02-15T22:46:11.799Z,8.99
2019-02-15T22:48:38.348Z,9.10
2019-02-15T22:51:04.885Z,8.91
2019-02-15T22:53:31.437Z,8.49
2019-02-15T22:55:57.957Z,8.10
2019-02-15T22:58:24.503Z,7.70
2019-02-15T23:00:57.191Z,7.53
2019-02-15T23:03:24.778Z,7.42
2019-02-15T23:05:51.322Z,7.20
2019-02-15T23:08:17.964Z,7.39
2019-02-15T23:10:44.517Z,7.51
2019-02-15T23:13:11.050Z,7.33
2019-02-15T23:15:37.600Z,7.68
2019-02-15T23:18:04.175Z,7.87
2019-02-15T23:20:30.700Z,7.62
2019-02-15T23:22:57.260Z,8.27
2019-02-15T23:25:25.151Z,8.23
2019-02-15T23:27:51.941Z,8.74
2019-02-15T23:30:18.475Z,8.89
2019-02-15T23:32:45.031Z,8.94
2019-02-15T23:35:11.566Z,8.96
2019-02-15T23:37:38.119Z,9.01
2019-02-15T23:40:04.661Z,8.77
2019-02-15T23:42:31.215Z,8.50
2019-02-15T23:44:57.768Z,8.30
2019-02-15T23:47:24.309Z,8.18
2019-02-15T23:49:50.837Z,7.98
2019-02-15T23:52:17.392Z,7.88
2019-02-15T23:54:43.949Z,7.77
2019-02-15T23:57:10.473Z,7.68
2019-02-15T23:59:37.029Z,7.70
